sensor_id;sensor_type;location;lat;lon;timestamp;temperature;humidity
13589;DHT22;6865;52.552;13.434;2022-09-19T00:00:44;10.00;99.90
13589;DHT22;6865;52.552;13.434;2022-09-19T00:03:10;10.00;99.90
13589;DHT22;6865;52.552;13.434;2022-09-19T00:05:39;10.10;99.90
13589;DHT22;6865;52.552;13.434;2022-09-19T00:08:06;10.10;99.90
13589;DHT22;6865;52.552;13.434;2022-09-19T00:10:37;10.00;99.90
13589;DHT22;6865;52.552;13.434;2022-09-19T00:13:05;9.50;99.90
13589;DHT22;6865;52.552;13.434;2022-09-19T00:15:35;9.90;99.90
13589;DHT22;6865;52.552;13.434;2022-09-19T00:18:03;9.90;99.90
13589;DHT22;6865;52.552;13.434;2022-09-19T00:20:30;9.80;99.90
13589;DHT22;6865;52.552;13.434;2022-09-19T00:22:57;9.80;99.90
13589;DHT22;6865;52.552;13.434;2022-09-19T00:25:42;9.80;99.90
13589;DHT22;6865;52.552;13.434;2022-09-19T00:28:09;9.80;99.90
13589;DHT22;6865;52.552;13.434;2022-09-19T00:30:38;9.80;99.90
13589;DHT22;6865;52.552;13.434;2022-09-19T00:33:05;9.80;99.90
13589;DHT22;6865;52.552;13.434;2022-09-19T00:35:32;9.80;99.90
13589;DHT22;6865;52.552;13.434;2022-09-19T00:37:59;9.80;99.90
13589;DHT22;6865;52.552;13.434;2022-09-19T00:40:26;9.90;99.90
13589;DHT22;6865;52.552;13.434;2022-09-19T00:42:52;9.80;99.90
13589;DHT22;6865;52.552;13.434;2022-09-19T00:45:19;9.80;99.90
13589;DHT22;6865;52.552;13.434;2022-09-19T00:47:48;9.80;99.90
13589;DHT22;6865;52.552;13.434;2022-09-19T00:50:23;9.90;99.90
13589;DHT22;6865;52.552;13.434;2022-09-19T00:52:56;9.80;99.90
13589;DHT22;6865;52.552;13.434;2022-09-19T00:55:25;9.90;99.90
13589;DHT22;6865;52.552;13.434;2022-09-19T00:58:02;9.80;99.90
13589;DHT22;6865;52.552;13.434;2022-09-19T01:00:29;9.80;99.90
13589;DHT22;6865;52.552;13.434;2022-09-19T01:02:56;10.00;99.90
13589;DHT22;6865;52.552;13.434;2022-09-19T01:05:53;9.80;99.90
13589;DHT22;6865;52.552;13.434;2022-09-19T01:08:39;9.80;99.90
13589;DHT22;6865;52.552;13.434;2022-09-19T01:14:13;9.80;99.90
13589;DHT22;6865;52.552;13.434;2022-09-19T01:16:51;9.80;99.90
13589;DHT22;6865;52.552;13.434;2022-09-19T01:19:36;9.70;99.90
13589;DHT22;6865;52.552;13.434;2022-09-19T01:24:57;9.70;99.90
13589;DHT22;6865;52.552;13.434;2022-09-19T01:27:59;9.70;99.90
13589;DHT22;6865;52.552;13.434;2022-09-19T01:30:31;9.70;99.90
13589;DHT22;6865;52.552;13.434;2022-09-19T01:33:06;9.70;99.90
13589;DHT22;6865;52.552;13.434;2022-09-19T01:35:38;9.60;99.90
13589;DHT22;6865;52.552;13.434;2022-09-19T01:38:10;9.60;99.90
13589;DHT22;6865;52.552;13.434;2022-09-19T01:40:39;9.40;99.90
13589;DHT22;6865;52.552;13.434;2022-09-19T01:43:13;9.50;99.90
13589;DHT22;6865;52.552;13.434;2022-09-19T01:45:40;9.60;99.90
13589;DHT22;6865;52.552;13.434;2022-09-19T01:51:07;9.60;99.90
13589;DHT22;6865;52.552;13.434;2022-09-19T01:54:06;9.50;99.90
13589;DHT22;6865;52.552;13.434;2022-09-19T01:56:43;9.50;99.90
13589;DHT22;6865;52.552;13.434;2022-09-19T01:59:20;9.50;99.90
13589;DHT22;6865;52.552;13.434;2022-09-19T02:02:01;9.50;99.90
13589;DHT22;6865;52.552;13.434;2022-09-19T02:04:38;9.50;99.90
13589;DHT22;6865;52.552;13.434;2022-09-19T02:07:13;9.40;99.90
13589;DHT22;6865;52.552;13.434;2022-09-19T02:10:00;9.20;99.90
13589;DHT22;6865;52.552;13.434;2022-09-19T02:12:31;9.30;99.90
13589;DHT22;6865;52.552;13.434;2022-09-19T02:15:01;9.30;99.90
13589;DHT22;6865;52.552;13.434;2022-09-19T02:17:42;9.30;99.90
13589;DHT22;6865;52.552;13.434;2022-09-19T02:20:39;9.30;99.90
13589;DHT22;6865;52.552;13.434;2022-09-19T02:23:19;9.50;99.90
13589;DHT22;6865;52.552;13.434;2022-09-19T02:25:49;9.40;99.90
13589;DHT22;6865;52.552;13.434;2022-09-19T02:28:22;9.50;99.90
13589;DHT22;6865;52.552;13.434;2022-09-19T02:30:49;9.50;99.90
13589;DHT22;6865;52.552;13.434;2022-09-19T02:33:16;9.30;99.90
13589;DHT22;6865;52.552;13.434;2022-09-19T02:38:30;9.20;99.90
13589;DHT22;6865;52.552;13.434;2022-09-19T02:41:19;9.30;99.90
13589;DHT22;6865;52.552;13.434;2022-09-19T02:43:57;9.40;99.90
13589;DHT22;6865;52.552;13.434;2022-09-19T02:46:35;9.60;99.90
13589;DHT22;6865;52.552;13.434;2022-09-19T02:49:39;9.60;99.90
13589;DHT22;6865;52.552;13.434;2022-09-19T02:52:13;9.60;99.90
13589;DHT22;6865;52.552;13.434;2022-09-19T02:54:49;9.50;99.90
13589;DHT22;6865;52.552;13.434;2022-09-19T02:57:20;9.50;99.90
13589;DHT22;6865;52.552;13.434;2022-09-19T02:59:50;9.40;99.90
13589;DHT22;6865;52.552;13.434;2022-09-19T03:02:25;9.40;99.90
13589;DHT22;6865;52.552;13.434;2022-09-19T03:04:58;9.40;99.90
13589;DHT22;6865;52.552;13.434;2022-09-19T03:07:30;9.50;99.90
13589;DHT22;6865;52.552;13.434;2022-09-19T03:13:10;9.50;99.90
13589;DHT22;6865;52.552;13.434;2022-09-19T03:15:48;9.50;99.90
13589;DHT22;6865;52.552;13.434;2022-09-19T03:18:17;9.50;99.90
13589;DHT22;6865;52.552;13.434;2022-09-19T03:20:53;9.60;99.90
13589;DHT22;6865;52.552;13.434;2022-09-19T03:23:25;9.60;99.90
13589;DHT22;6865;52.552;13.434;2022-09-19T03:25:54;9.60;99.90
13589;DHT22;6865;52.552;13.434;2022-09-19T03:28:20;9.70;99.90
13589;DHT22;6865;52.552;13.434;2022-09-19T03:30:49;9.70;99.90
13589;DHT22;6865;52.552;13.434;2022-09-19T03:33:15;9.70;99.90
13589;DHT22;6865;52.552;13.434;2022-09-19T03:35:44;9.70;99.90
13589;DHT22;6865;52.552;13.434;2022-09-19T03:38:11;9.70;99.90
13589;DHT22;6865;52.552;13.434;2022-09-19T03:40:37;9.70;99.90
13589;DHT22;6865;52.552;13.434;2022-09-19T03:43:04;9.70;99.90
13589;DHT22;6865;52.552;13.434;2022-09-19T03:45:31;9.90;99.90
13589;DHT22;6865;52.552;13.434;2022-09-19T03:47:58;9.80;99.90
13589;DHT22;6865;52.552;13.434;2022-09-19T03:50:25;9.70;99.90
13589;DHT22;6865;52.552;13.434;2022-09-19T03:52:51;9.80;99.90
13589;DHT22;6865;52.552;13.434;2022-09-19T03:55:18;9.90;99.90
13589;DHT22;6865;52.552;13.434;2022-09-19T03:57:44;10.00;99.90
13589;DHT22;6865;52.552;13.434;2022-09-19T04:00:11;10.00;99.90
13589;DHT22;6865;52.552;13.434;2022-09-19T04:02:38;10.00;99.90
13589;DHT22;6865;52.552;13.434;2022-09-19T04:05:05;10.00;99.90
13589;DHT22;6865;52.552;13.434;2022-09-19T04:07:31;10.10;99.90
13589;DHT22;6865;52.552;13.434;2022-09-19T04:09:58;10.10;99.90
13589;DHT22;6865;52.552;13.434;2022-09-19T04:12:25;10.10;99.90
13589;DHT22;6865;52.552;13.434;2022-09-19T04:14:51;10.00;99.90
13589;DHT22;6865;52.552;13.434;2022-09-19T04:17:18;10.00;99.90
13589;DHT22;6865;52.552;13.434;2022-09-19T04:19:48;9.90;99.90
13589;DHT22;6865;52.552;13.434;2022-09-19T04:22:16;9.90;99.90
13589;DHT22;6865;52.552;13.434;2022-09-19T04:24:45;11.30;99.90
13589;DHT22;6865;52.552;13.434;2022-09-19T04:27:12;10.00;99.90
13589;DHT22;6865;52.552;13.434;2022-09-19T04:29:46;10.00;99.90
13589;DHT22;6865;52.552;13.434;2022-09-19T04:32:12;10.00;99.90
13589;DHT22;6865;52.552;13.434;2022-09-19T04:34:42;10.00;99.90
13589;DHT22;6865;52.552;13.434;2022-09-19T04:37:10;10.10;99.90
13589;DHT22;6865;52.552;13.434;2022-09-19T04:39:36;10.00;99.90
13589;DHT22;6865;52.552;13.434;2022-09-19T04:42:04;10.10;99.90
13589;DHT22;6865;52.552;13.434;2022-09-19T04:44:30;10.10;99.90
13589;DHT22;6865;52.552;13.434;2022-09-19T04:46:57;10.10;99.90
13589;DHT22;6865;52.552;13.434;2022-09-19T04:49:24;10.00;99.90
13589;DHT22;6865;52.552;13.434;2022-09-19T04:52:04;10.30;99.90
13589;DHT22;6865;52.552;13.434;2022-09-19T04:54:31;10.20;99.90
13589;DHT22;6865;52.552;13.434;2022-09-19T04:57:05;10.20;99.90
13589;DHT22;6865;52.552;13.434;2022-09-19T04:59:33;10.20;99.90
13589;DHT22;6865;52.552;13.434;2022-09-19T05:02:00;10.30;99.90
13589;DHT22;6865;52.552;13.434;2022-09-19T05:04:31;10.30;99.90
13589;DHT22;6865;52.552;13.434;2022-09-19T05:06:57;10.30;99.90
13589;DHT22;6865;52.552;13.434;2022-09-19T05:09:24;10.30;99.90
13589;DHT22;6865;52.552;13.434;2022-09-19T05:11:51;10.30;99.90
13589;DHT22;6865;52.552;13.434;2022-09-19T05:14:23;10.30;99.90
13589;DHT22;6865;52.552;13.434;2022-09-19T05:16:52;10.40;99.90
13589;DHT22;6865;52.552;13.434;2022-09-19T05:19:18;10.40;99.90
13589;DHT22;6865;52.552;13.434;2022-09-19T05:21:49;10.40;99.90
13589;DHT22;6865;52.552;13.434;2022-09-19T05:24:16;10.50;99.90
13589;DHT22;6865;52.552;13.434;2022-09-19T05:26:45;10.50;99.90
13589;DHT22;6865;52.552;13.434;2022-09-19T05:29:12;10.50;99.90
13589;DHT22;6865;52.552;13.434;2022-09-19T05:31:42;10.50;99.90
13589;DHT22;6865;52.552;13.434;2022-09-19T05:34:11;10.60;99.90
13589;DHT22;6865;52.552;13.434;2022-09-19T05:36:41;10.60;99.90
13589;DHT22;6865;52.552;13.434;2022-09-19T05:39:08;10.60;99.90
13589;DHT22;6865;52.552;13.434;2022-09-19T05:41:35;10.50;99.90
13589;DHT22;6865;52.552;13.434;2022-09-19T05:44:02;10.60;99.90
13589;DHT22;6865;52.552;13.434;2022-09-19T05:46:28;10.60;99.90
13589;DHT22;6865;52.552;13.434;2022-09-19T05:48:57;10.70;99.90
13589;DHT22;6865;52.552;13.434;2022-09-19T05:51:23;10.70;99.90
13589;DHT22;6865;52.552;13.434;2022-09-19T05:53:50;10.70;99.90
13589;DHT22;6865;52.552;13.434;2022-09-19T05:56:23;10.70;99.90
13589;DHT22;6865;52.552;13.434;2022-09-19T05:58:53;10.70;99.90
13589;DHT22;6865;52.552;13.434;2022-09-19T06:01:20;10.80;99.90
13589;DHT22;6865;52.552;13.434;2022-09-19T06:03:47;10.90;99.90
13589;DHT22;6865;52.552;13.434;2022-09-19T06:06:16;10.90;99.90
13589;DHT22;6865;52.552;13.434;2022-09-19T06:08:47;10.90;99.90
13589;DHT22;6865;52.552;13.434;2022-09-19T06:11:14;10.90;99.90
13589;DHT22;6865;52.552;13.434;2022-09-19T06:13:40;10.90;99.90
13589;DHT22;6865;52.552;13.434;2022-09-19T06:16:25;11.00;99.90
13589;DHT22;6865;52.552;13.434;2022-09-19T06:18:52;11.10;99.90
13589;DHT22;6865;52.552;13.434;2022-09-19T06:21:19;11.10;99.90
13589;DHT22;6865;52.552;13.434;2022-09-19T06:23:45;11.10;99.90
13589;DHT22;6865;52.552;13.434;2022-09-19T06:26:12;11.10;99.90
13589;DHT22;6865;52.552;13.434;2022-09-19T06:28:38;11.30;99.90
13589;DHT22;6865;52.552;13.434;2022-09-19T06:31:05;11.30;99.90
13589;DHT22;6865;52.552;13.434;2022-09-19T06:33:34;11.30;99.90
13589;DHT22;6865;52.552;13.434;2022-09-19T06:36:01;11.30;99.90
13589;DHT22;6865;52.552;13.434;2022-09-19T06:38:29;11.30;99.90
13589;DHT22;6865;52.552;13.434;2022-09-19T06:40:57;11.40;99.90
13589;DHT22;6865;52.552;13.434;2022-09-19T06:43:24;11.20;99.90
13589;DHT22;6865;52.552;13.434;2022-09-19T06:45:53;11.40;99.90
13589;DHT22;6865;52.552;13.434;2022-09-19T06:48:20;11.50;99.90
13589;DHT22;6865;52.552;13.434;2022-09-19T06:50:47;11.50;99.90
13589;DHT22;6865;52.552;13.434;2022-09-19T06:53:14;11.60;99.90
13589;DHT22;6865;52.552;13.434;2022-09-19T06:55:41;11.60;99.90
13589;DHT22;6865;52.552;13.434;2022-09-19T06:58:12;11.60;99.90
13589;DHT22;6865;52.552;13.434;2022-09-19T07:00:39;11.50;99.90
13589;DHT22;6865;52.552;13.434;2022-09-19T07:03:10;11.80;99.90
13589;DHT22;6865;52.552;13.434;2022-09-19T07:05:39;11.90;99.90
13589;DHT22;6865;52.552;13.434;2022-09-19T07:08:09;11.90;99.90
13589;DHT22;6865;52.552;13.434;2022-09-19T07:10:36;11.60;99.90
13589;DHT22;6865;52.552;13.434;2022-09-19T07:13:04;12.00;99.90
13589;DHT22;6865;52.552;13.434;2022-09-19T07:15:33;11.90;99.90
13589;DHT22;6865;52.552;13.434;2022-09-19T07:18:00;12.10;99.90
13589;DHT22;6865;52.552;13.434;2022-09-19T07:20:28;12.10;99.90
13589;DHT22;6865;52.552;13.434;2022-09-19T07:23:07;12.20;99.90
13589;DHT22;6865;52.552;13.434;2022-09-19T07:25:39;12.20;99.90
13589;DHT22;6865;52.552;13.434;2022-09-19T07:28:09;12.30;99.90
13589;DHT22;6865;52.552;13.434;2022-09-19T07:30:35;12.30;99.90
13589;DHT22;6865;52.552;13.434;2022-09-19T07:33:04;12.50;99.90
13589;DHT22;6865;52.552;13.434;2022-09-19T07:35:34;12.50;99.90
13589;DHT22;6865;52.552;13.434;2022-09-19T07:38:03;12.50;99.90
13589;DHT22;6865;52.552;13.434;2022-09-19T07:40:30;12.60;99.90
13589;DHT22;6865;52.552;13.434;2022-09-19T07:43:01;12.70;99.90
13589;DHT22;6865;52.552;13.434;2022-09-19T07:45:31;12.80;99.90
13589;DHT22;6865;52.552;13.434;2022-09-19T07:48:01;12.90;99.90
13589;DHT22;6865;52.552;13.434;2022-09-19T07:50:29;13.00;99.90
13589;DHT22;6865;52.552;13.434;2022-09-19T07:53:04;13.00;99.90
13589;DHT22;6865;52.552;13.434;2022-09-19T07:55:32;13.10;99.90
13589;DHT22;6865;52.552;13.434;2022-09-19T07:57:59;13.10;99.90
13589;DHT22;6865;52.552;13.434;2022-09-19T08:00:27;13.20;99.90
13589;DHT22;6865;52.552;13.434;2022-09-19T08:02:59;13.20;99.90
13589;DHT22;6865;52.552;13.434;2022-09-19T08:05:28;13.20;99.90
13589;DHT22;6865;52.552;13.434;2022-09-19T08:07:55;13.30;99.90
13589;DHT22;6865;52.552;13.434;2022-09-19T08:10:22;13.60;99.90
13589;DHT22;6865;52.552;13.434;2022-09-19T08:12:48;13.50;99.90
13589;DHT22;6865;52.552;13.434;2022-09-19T08:15:17;13.50;99.90
13589;DHT22;6865;52.552;13.434;2022-09-19T08:17:58;13.60;99.90
13589;DHT22;6865;52.552;13.434;2022-09-19T08:20:28;13.70;99.90
13589;DHT22;6865;52.552;13.434;2022-09-19T08:23:05;13.80;99.90
13589;DHT22;6865;52.552;13.434;2022-09-19T08:25:35;13.90;99.90
13589;DHT22;6865;52.552;13.434;2022-09-19T08:28:02;13.90;99.90
13589;DHT22;6865;52.552;13.434;2022-09-19T08:30:33;14.00;99.90
13589;DHT22;6865;52.552;13.434;2022-09-19T08:33:03;14.10;99.90
13589;DHT22;6865;52.552;13.434;2022-09-19T08:35:38;14.20;99.90
13589;DHT22;6865;52.552;13.434;2022-09-19T08:38:07;14.30;99.90
13589;DHT22;6865;52.552;13.434;2022-09-19T08:40:46;14.30;99.90
13589;DHT22;6865;52.552;13.434;2022-09-19T08:43:29;14.40;99.90
13589;DHT22;6865;52.552;13.434;2022-09-19T08:46:15;14.50;99.90
13589;DHT22;6865;52.552;13.434;2022-09-19T08:48:56;14.50;99.90
13589;DHT22;6865;52.552;13.434;2022-09-19T08:51:42;14.70;99.90
13589;DHT22;6865;52.552;13.434;2022-09-19T08:54:20;14.80;99.90
13589;DHT22;6865;52.552;13.434;2022-09-19T08:56:49;14.90;99.90
13589;DHT22;6865;52.552;13.434;2022-09-19T08:59:21;14.80;99.90
13589;DHT22;6865;52.552;13.434;2022-09-19T09:01:53;14.90;99.90
13589;DHT22;6865;52.552;13.434;2022-09-19T09:04:42;15.10;99.90
13589;DHT22;6865;52.552;13.434;2022-09-19T09:07:45;15.00;99.90
13589;DHT22;6865;52.552;13.434;2022-09-19T09:10:41;15.00;99.90
13589;DHT22;6865;52.552;13.434;2022-09-19T09:13:38;15.00;99.90
13589;DHT22;6865;52.552;13.434;2022-09-19T09:16:50;14.90;99.90
13589;DHT22;6865;52.552;13.434;2022-09-19T09:22:44;15.00;99.90
13589;DHT22;6865;52.552;13.434;2022-09-19T09:25:20;15.20;99.90
13589;DHT22;6865;52.552;13.434;2022-09-19T09:28:06;15.30;99.90
13589;DHT22;6865;52.552;13.434;2022-09-19T09:30:37;15.50;99.90
13589;DHT22;6865;52.552;13.434;2022-09-19T09:33:14;15.90;99.90
13589;DHT22;6865;52.552;13.434;2022-09-19T09:35:48;15.80;99.90
13589;DHT22;6865;52.552;13.434;2022-09-19T09:41:27;15.90;99.90
13589;DHT22;6865;52.552;13.434;2022-09-19T09:44:38;16.10;99.90
13589;DHT22;6865;52.552;13.434;2022-09-19T09:47:38;16.20;99.90
13589;DHT22;6865;52.552;13.434;2022-09-19T09:50:22;17.00;99.90
13589;DHT22;6865;52.552;13.434;2022-09-19T10:01:30;14.70;99.90
13589;DHT22;6865;52.552;13.434;2022-09-19T10:04:29;14.20;99.90
13589;DHT22;6865;52.552;13.434;2022-09-19T10:07:11;13.70;99.90
13589;DHT22;6865;52.552;13.434;2022-09-19T10:10:04;13.30;99.90
13589;DHT22;6865;52.552;13.434;2022-09-19T10:12:46;12.90;99.90
13589;DHT22;6865;52.552;13.434;2022-09-19T10:15:26;12.90;99.90
13589;DHT22;6865;52.552;13.434;2022-09-19T10:18:09;12.90;99.90
13589;DHT22;6865;52.552;13.434;2022-09-19T10:20:49;12.80;99.90
13589;DHT22;6865;52.552;13.434;2022-09-19T10:23:26;12.70;99.90
13589;DHT22;6865;52.552;13.434;2022-09-19T10:26:06;12.30;99.90
13589;DHT22;6865;52.552;13.434;2022-09-19T10:28:49;12.30;99.90
13589;DHT22;6865;52.552;13.434;2022-09-19T10:31:22;12.20;99.90
13589;DHT22;6865;52.552;13.434;2022-09-19T10:33:50;12.20;99.90
13589;DHT22;6865;52.552;13.434;2022-09-19T10:36:22;12.10;99.90
13589;DHT22;6865;52.552;13.434;2022-09-19T10:38:52;12.00;99.90
13589;DHT22;6865;52.552;13.434;2022-09-19T10:41:22;11.70;99.90
13589;DHT22;6865;52.552;13.434;2022-09-19T10:43:57;11.70;99.90
13589;DHT22;6865;52.552;13.434;2022-09-19T10:46:27;11.60;99.90
13589;DHT22;6865;52.552;13.434;2022-09-19T10:48:58;11.50;99.90
13589;DHT22;6865;52.552;13.434;2022-09-19T10:53:58;11.70;99.90
13589;DHT22;6865;52.552;13.434;2022-09-19T10:56:29;11.40;99.90
13589;DHT22;6865;52.552;13.434;2022-09-19T11:01:38;11.30;99.90
13589;DHT22;6865;52.552;13.434;2022-09-19T11:06:56;11.40;99.90
13589;DHT22;6865;52.552;13.434;2022-09-19T11:09:27;11.50;99.90
13589;DHT22;6865;52.552;13.434;2022-09-19T11:12:10;11.50;99.90
13589;DHT22;6865;52.552;13.434;2022-09-19T11:14:39;11.50;99.90
13589;DHT22;6865;52.552;13.434;2022-09-19T11:17:36;11.70;99.90
13589;DHT22;6865;52.552;13.434;2022-09-19T11:23:32;12.20;99.90
13589;DHT22;6865;52.552;13.434;2022-09-19T11:26:20;12.60;99.90
13589;DHT22;6865;52.552;13.434;2022-09-19T11:29:11;13.00;99.90
13589;DHT22;6865;52.552;13.434;2022-09-19T11:41:16;14.20;99.90
13589;DHT22;6865;52.552;13.434;2022-09-19T11:44:13;14.50;99.90
13589;DHT22;6865;52.552;13.434;2022-09-19T11:49:53;14.70;99.90
13589;DHT22;6865;52.552;13.434;2022-09-19T11:52:39;14.80;99.90
13589;DHT22;6865;52.552;13.434;2022-09-19T11:58:03;15.10;99.90
13589;DHT22;6865;52.552;13.434;2022-09-19T12:01:06;15.20;99.90
13589;DHT22;6865;52.552;13.434;2022-09-19T12:03:56;15.40;99.90
13589;DHT22;6865;52.552;13.434;2022-09-19T12:07:11;15.60;99.90
13589;DHT22;6865;52.552;13.434;2022-09-19T12:10:00;15.20;99.90
13589;DHT22;6865;52.552;13.434;2022-09-19T12:12:31;15.10;99.90
13589;DHT22;6865;52.552;13.434;2022-09-19T12:15:19;15.00;99.90
13589;DHT22;6865;52.552;13.434;2022-09-19T12:17:57;14.80;99.90
13589;DHT22;6865;52.552;13.434;2022-09-19T12:20:33;14.70;99.90
13589;DHT22;6865;52.552;13.434;2022-09-19T12:25:57;14.40;99.90
13589;DHT22;6865;52.552;13.434;2022-09-19T12:28:42;14.20;99.90
13589;DHT22;6865;52.552;13.434;2022-09-19T12:31:17;13.90;99.90
13589;DHT22;6865;52.552;13.434;2022-09-19T12:33:54;13.60;99.90
13589;DHT22;6865;52.552;13.434;2022-09-19T12:36:28;13.40;99.90
13589;DHT22;6865;52.552;13.434;2022-09-19T12:39:07;13.10;99.90
13589;DHT22;6865;52.552;13.434;2022-09-19T12:41:51;13.00;99.90
13589;DHT22;6865;52.552;13.434;2022-09-19T12:47:35;12.70;99.90
13589;DHT22;6865;52.552;13.434;2022-09-19T12:50:19;12.50;99.90
13589;DHT22;6865;52.552;13.434;2022-09-19T12:55:26;12.30;99.90
13589;DHT22;6865;52.552;13.434;2022-09-19T12:58:15;12.20;99.90
13589;DHT22;6865;52.552;13.434;2022-09-19T13:00:44;12.30;99.90
13589;DHT22;6865;52.552;13.434;2022-09-19T13:03:25;12.20;99.90
13589;DHT22;6865;52.552;13.434;2022-09-19T13:05:56;12.20;99.90
13589;DHT22;6865;52.552;13.434;2022-09-19T13:08:37;12.20;99.90
13589;DHT22;6865;52.552;13.434;2022-09-19T13:11:10;12.20;99.90
13589;DHT22;6865;52.552;13.434;2022-09-19T13:13:45;12.20;99.90
13589;DHT22;6865;52.552;13.434;2022-09-19T13:16:17;12.20;99.90
13589;DHT22;6865;52.552;13.434;2022-09-19T13:18:47;12.20;99.90
13589;DHT22;6865;52.552;13.434;2022-09-19T13:21:39;12.30;99.90
13589;DHT22;6865;52.552;13.434;2022-09-19T13:24:53;12.40;99.90
13589;DHT22;6865;52.552;13.434;2022-09-19T13:27:24;12.40;99.90
13589;DHT22;6865;52.552;13.434;2022-09-19T13:29:51;12.30;99.90
13589;DHT22;6865;52.552;13.434;2022-09-19T13:32:47;12.20;99.90
13589;DHT22;6865;52.552;13.434;2022-09-19T13:35:21;12.30;99.90
13589;DHT22;6865;52.552;13.434;2022-09-19T13:37:57;12.20;99.90
13589;DHT22;6865;52.552;13.434;2022-09-19T13:40:38;12.30;99.90
13589;DHT22;6865;52.552;13.434;2022-09-19T13:46:44;12.30;99.90
13589;DHT22;6865;52.552;13.434;2022-09-19T13:49:25;12.40;99.90
13589;DHT22;6865;52.552;13.434;2022-09-19T13:52:00;12.40;99.90
13589;DHT22;6865;52.552;13.434;2022-09-19T13:54:35;12.50;99.90
13589;DHT22;6865;52.552;13.434;2022-09-19T13:57:15;12.40;99.90
13589;DHT22;6865;52.552;13.434;2022-09-19T14:05:00;12.50;99.90
13589;DHT22;6865;52.552;13.434;2022-09-19T14:10:30;12.40;99.90
13589;DHT22;6865;52.552;13.434;2022-09-19T14:16:04;12.20;99.90
13589;DHT22;6865;52.552;13.434;2022-09-19T14:23:57;12.30;99.90
13589;DHT22;6865;52.552;13.434;2022-09-19T14:29:35;12.30;99.90
13589;DHT22;6865;52.552;13.434;2022-09-19T14:32:25;12.50;99.90
13589;DHT22;6865;52.552;13.434;2022-09-19T14:35:19;12.50;99.90
13589;DHT22;6865;52.552;13.434;2022-09-19T14:38:30;12.50;99.90
13589;DHT22;6865;52.552;13.434;2022-09-19T14:41:08;12.60;99.90
13589;DHT22;6865;52.552;13.434;2022-09-19T14:44:09;12.50;99.90
13589;DHT22;6865;52.552;13.434;2022-09-19T14:46:53;12.40;99.90
13589;DHT22;6865;52.552;13.434;2022-09-19T14:49:31;12.40;99.90
13589;DHT22;6865;52.552;13.434;2022-09-19T14:52:32;12.40;99.90
13589;DHT22;6865;52.552;13.434;2022-09-19T14:55:22;12.30;99.90
13589;DHT22;6865;52.552;13.434;2022-09-19T14:57:49;12.30;99.90
13589;DHT22;6865;52.552;13.434;2022-09-19T15:00:25;12.20;99.90
13589;DHT22;6865;52.552;13.434;2022-09-19T15:02:57;12.30;99.90
13589;DHT22;6865;52.552;13.434;2022-09-19T15:05:28;12.40;99.90
13589;DHT22;6865;52.552;13.434;2022-09-19T15:07:56;12.30;99.90
13589;DHT22;6865;52.552;13.434;2022-09-19T15:13:17;12.40;99.90
13589;DHT22;6865;52.552;13.434;2022-09-19T15:15:48;12.50;99.90
13589;DHT22;6865;52.552;13.434;2022-09-19T15:18:21;12.60;99.90
13589;DHT22;6865;52.552;13.434;2022-09-19T15:20:54;12.50;99.90
13589;DHT22;6865;52.552;13.434;2022-09-19T15:23:23;12.60;99.90
13589;DHT22;6865;52.552;13.434;2022-09-19T15:25:58;12.60;99.90
13589;DHT22;6865;52.552;13.434;2022-09-19T15:28:31;12.60;99.90
13589;DHT22;6865;52.552;13.434;2022-09-19T15:31:02;12.60;99.90
13589;DHT22;6865;52.552;13.434;2022-09-19T15:33:29;12.60;99.90
13589;DHT22;6865;52.552;13.434;2022-09-19T15:35:57;12.60;99.90
13589;DHT22;6865;52.552;13.434;2022-09-19T15:38:35;12.60;99.90
13589;DHT22;6865;52.552;13.434;2022-09-19T15:41:05;12.60;99.90
13589;DHT22;6865;52.552;13.434;2022-09-19T15:43:33;12.60;99.90
13589;DHT22;6865;52.552;13.434;2022-09-19T15:46:04;12.50;99.90
13589;DHT22;6865;52.552;13.434;2022-09-19T15:48:59;12.50;99.90
13589;DHT22;6865;52.552;13.434;2022-09-19T15:51:32;12.50;99.90
13589;DHT22;6865;52.552;13.434;2022-09-19T15:54:04;12.40;99.90
13589;DHT22;6865;52.552;13.434;2022-09-19T15:56:45;12.40;99.90
13589;DHT22;6865;52.552;13.434;2022-09-19T15:59:57;12.40;99.90
13589;DHT22;6865;52.552;13.434;2022-09-19T16:02:18;12.30;99.90
13589;DHT22;6865;52.552;13.434;2022-09-19T16:05:02;12.30;99.90
13589;DHT22;6865;52.552;13.434;2022-09-19T16:07:36;12.30;99.90
13589;DHT22;6865;52.552;13.434;2022-09-19T16:10:23;12.30;99.90
13589;DHT22;6865;52.552;13.434;2022-09-19T16:13:35;12.30;99.90
13589;DHT22;6865;52.552;13.434;2022-09-19T16:16:13;12.30;99.90
13589;DHT22;6865;52.552;13.434;2022-09-19T16:18:54;12.30;99.90
13589;DHT22;6865;52.552;13.434;2022-09-19T16:21:34;12.30;99.90
13589;DHT22;6865;52.552;13.434;2022-09-19T16:24:02;12.20;99.90
13589;DHT22;6865;52.552;13.434;2022-09-19T16:26:33;12.20;99.90
13589;DHT22;6865;52.552;13.434;2022-09-19T16:29:00;12.20;99.90
13589;DHT22;6865;52.552;13.434;2022-09-19T16:31:33;12.20;99.90
13589;DHT22;6865;52.552;13.434;2022-09-19T16:34:32;12.20;99.90
13589;DHT22;6865;52.552;13.434;2022-09-19T16:36:59;12.20;99.90
13589;DHT22;6865;52.552;13.434;2022-09-19T16:39:48;12.10;99.90
13589;DHT22;6865;52.552;13.434;2022-09-19T16:42:19;12.10;99.90
13589;DHT22;6865;52.552;13.434;2022-09-19T16:47:48;12.10;99.90
13589;DHT22;6865;52.552;13.434;2022-09-19T16:50:18;12.00;99.90
13589;DHT22;6865;52.552;13.434;2022-09-19T16:52:48;12.00;99.90
13589;DHT22;6865;52.552;13.434;2022-09-19T16:55:22;11.90;99.90
13589;DHT22;6865;52.552;13.434;2022-09-19T16:57:51;11.90;99.90
13589;DHT22;6865;52.552;13.434;2022-09-19T17:00:20;11.80;99.90
13589;DHT22;6865;52.552;13.434;2022-09-19T17:02:46;11.70;99.90
13589;DHT22;6865;52.552;13.434;2022-09-19T17:05:25;11.70;99.90
13589;DHT22;6865;52.552;13.434;2022-09-19T17:07:54;11.70;99.90
13589;DHT22;6865;52.552;13.434;2022-09-19T17:10:22;11.70;99.90
13589;DHT22;6865;52.552;13.434;2022-09-19T17:12:50;11.70;99.90
13589;DHT22;6865;52.552;13.434;2022-09-19T17:15:38;11.20;99.90
13589;DHT22;6865;52.552;13.434;2022-09-19T17:18:07;11.60;99.90
13589;DHT22;6865;52.552;13.434;2022-09-19T17:20:38;11.50;99.90
13589;DHT22;6865;52.552;13.434;2022-09-19T17:23:05;11.40;99.90
13589;DHT22;6865;52.552;13.434;2022-09-19T17:25:50;11.20;99.90
13589;DHT22;6865;52.552;13.434;2022-09-19T17:28:19;11.50;99.90
13589;DHT22;6865;52.552;13.434;2022-09-19T17:30:46;11.50;99.90
13589;DHT22;6865;52.552;13.434;2022-09-19T17:33:21;11.50;99.90
13589;DHT22;6865;52.552;13.434;2022-09-19T17:35:49;11.40;99.90
13589;DHT22;6865;52.552;13.434;2022-09-19T17:38:16;11.40;99.90
13589;DHT22;6865;52.552;13.434;2022-09-19T17:40:44;11.40;99.90
13589;DHT22;6865;52.552;13.434;2022-09-19T17:43:15;11.30;99.90
13589;DHT22;6865;52.552;13.434;2022-09-19T17:45:43;11.20;99.90
13589;DHT22;6865;52.552;13.434;2022-09-19T17:48:13;11.20;99.90
13589;DHT22;6865;52.552;13.434;2022-09-19T17:51:13;11.20;99.90
13589;DHT22;6865;52.552;13.434;2022-09-19T17:53:40;11.20;99.90